Airfield :
LOGIN :

Register | Disclaimer

   EN    FR    IT 

 










Legend :    VFR   Marginal VFR   IFR   Intensive IFR   Very Intensive IFR
Visi :
Ceiling :
>= 8 km
>= 3000ft
5 to 8 km
1000 to 3000 ft
1500m to 5 km
500 to 1000 ft
800 to 1500m
200 to 500 ft
< 800m
< 200 ft
Symbols :   Thunderstorms  Fog  Heavy snow  Heavy precipitations  Wind > 20 kt
SIGMETs :     Misc.  Thunderstorms  Icing  Turbulence  Mountain Waves  Volcanic Ashes







- Airport Elevation : 357 ft
- IATA code : TUF
- Download approach charts


LFOT - Tours

CURRENT METAR :
  • 180730Z AUTO 24019KT 5000 DZ BR OVC007 10/09 Q1012 TEMPO 23020G33KT 2500 -DZ

EXPIRED METARs :
  • 180700Z AUTO 23019KT 4700 -RA BR OVC007 10/09 Q1012 TEMPO 23020G33KT 2500 -DZ
  • 180630Z AUTO 23018KT 4700 DZ BR OVC007 10/09 Q1012 TEMPO 23020G33KT 2500 -DZ
  • 180600Z AUTO 23015KT 200V260 8000 -DZ OVC007 09/08 Q1012 TEMPO 23020G33KT 2500 -DZ
  • 180530Z AUTO 23016KT 7000 -DZ OVC007 09/08 Q1012 TEMPO 23020G33KT 2500 -DZ
  • 180500Z AUTO 23017KT 7000 -RADZ OVC007 09/08 Q1012 TEMPO 25020G35KT 4000 RA

TAF TAF LFOT
Valid from the 18 at 06:00 until the 19 at 06:00 UTC


180500Z 1806/1906 23015KT 9999 BKN016
TEMPO 1806/1817 23020G33KT -RA OVC012
PROB40
TEMPO 1806/1812 2500 -DZ OVC006
BECMG 1817/1819 SCT030
PROB30
TEMPO 1821/1823 27015G25KT -SHRA SCT020TCU BKN030
No reported NOTAMs for that airfield.
3 SIGMETs reported for the Paris FIR (LFFF) :
 
Severe turbulence
LFFF SIGMET 4 VALID 180600/180900 LFPW
LFFF PARIS FIR/UIR SEV TURB FCST NW OF LINE N4745 E00445 - N4715 W00015 SFC/FL060 STNR NC=
SIGMET 2  cancelation
LFFF SIGMET 3 VALID 180445/180900 LFPW
LFFF PARIS FIR/UIR CNL SIGMET 2 180500/180900=
SIGMET 2  CANCELED :
Severe turbulence
LFFF SIGMET 2 VALID 180500/180900 LFPW
LFFF PARIS FIR/UIR SEV TURB FCST WI N5000 E00500 - N4930 E00600 - N4900 E00445 - N4830 E00530 - N4730 E00415 - N4700 E00430 - N4700 E00400 - N5000 E00500 SFC/FL060 STNR INTSF=



MET'MAP, your aeronautical weather chart ! - Copyright ORBIFLY December 2007 - Disclaimer

ORBIFLY MET'MAP TEAM :

Programming & Development : Alexandra Zaïnal
Concept & Development : Baudouin d'Aumeries
Co-Development & Prog : Marc-Olivier Méhu
Technical & hardware support : Manuel Goepfert

Contact : metmap@orbifly.com




SOURCES & CREDITS :

   NOAA